sensor_id;sensor_type;location;lat;lon;timestamp;P1;durP1;ratioP1;P2;durP2;ratioP2
2406;SDS011;37709;53.480;9.688;2023-04-08T00:00:18;12.87;;;9.80;;
2406;SDS011;37709;53.480;9.688;2023-04-08T00:02:45;14.03;;;10.10;;
2406;SDS011;37709;53.480;9.688;2023-04-08T00:05:13;11.80;;;9.00;;
2406;SDS011;37709;53.480;9.688;2023-04-08T00:07:41;11.90;;;9.60;;
2406;SDS011;37709;53.480;9.688;2023-04-08T00:10:09;12.40;;;9.63;;
2406;SDS011;37709;53.480;9.688;2023-04-08T00:12:37;12.97;;;8.73;;
2406;SDS011;37709;53.480;9.688;2023-04-08T00:15:05;13.57;;;9.80;;
2406;SDS011;37709;53.480;9.688;2023-04-08T00:17:32;12.37;;;9.60;;
2406;SDS011;37709;53.480;9.688;2023-04-08T00:20:00;9.97;;;8.93;;
2406;SDS011;37709;53.480;9.688;2023-04-08T00:22:27;12.57;;;9.27;;
2406;SDS011;37709;53.480;9.688;2023-04-08T00:24:55;11.80;;;9.70;;
2406;SDS011;37709;53.480;9.688;2023-04-08T00:27:23;13.00;;;10.07;;
2406;SDS011;37709;53.480;9.688;2023-04-08T00:29:51;10.33;;;8.50;;
2406;SDS011;37709;53.480;9.688;2023-04-08T00:32:18;12.93;;;9.77;;
2406;SDS011;37709;53.480;9.688;2023-04-08T00:34:46;10.80;;;8.77;;
2406;SDS011;37709;53.480;9.688;2023-04-08T00:37:13;14.87;;;9.93;;
2406;SDS011;37709;53.480;9.688;2023-04-08T00:39:41;11.77;;;8.90;;
2406;SDS011;37709;53.480;9.688;2023-04-08T00:42:08;11.23;;;8.97;;
2406;SDS011;37709;53.480;9.688;2023-04-08T00:44:35;11.50;;;9.37;;
2406;SDS011;37709;53.480;9.688;2023-04-08T00:47:03;14.27;;;9.73;;
2406;SDS011;37709;53.480;9.688;2023-04-08T00:49:30;11.30;;;9.83;;
2406;SDS011;37709;53.480;9.688;2023-04-08T00:51:58;13.63;;;9.47;;
2406;SDS011;37709;53.480;9.688;2023-04-08T00:54:26;13.20;;;8.70;;
2406;SDS011;37709;53.480;9.688;2023-04-08T00:56:54;14.33;;;9.93;;
2406;SDS011;37709;53.480;9.688;2023-04-08T00:59:22;11.70;;;8.70;;
2406;SDS011;37709;53.480;9.688;2023-04-08T01:01:50;14.40;;;9.70;;
2406;SDS011;37709;53.480;9.688;2023-04-08T01:07:33;11.97;;;8.90;;
2406;SDS011;37709;53.480;9.688;2023-04-08T01:10:12;12.10;;;9.00;;
2406;SDS011;37709;53.480;9.688;2023-04-08T01:12:43;11.83;;;9.20;;
2406;SDS011;37709;53.480;9.688;2023-04-08T01:15:19;14.80;;;9.20;;
2406;SDS011;37709;53.480;9.688;2023-04-08T01:17:47;12.47;;;9.27;;
2406;SDS011;37709;53.480;9.688;2023-04-08T01:20:16;11.23;;;8.53;;
2406;SDS011;37709;53.480;9.688;2023-04-08T01:22:48;12.67;;;9.73;;
2406;SDS011;37709;53.480;9.688;2023-04-08T01:25:26;12.63;;;8.73;;
2406;SDS011;37709;53.480;9.688;2023-04-08T01:28:00;13.53;;;8.93;;
2406;SDS011;37709;53.480;9.688;2023-04-08T01:30:30;13.00;;;10.40;;
2406;SDS011;37709;53.480;9.688;2023-04-08T01:33:00;13.33;;;9.33;;
2406;SDS011;37709;53.480;9.688;2023-04-08T01:35:29;11.87;;;8.70;;
2406;SDS011;37709;53.480;9.688;2023-04-08T01:37:58;13.50;;;9.50;;
2406;SDS011;37709;53.480;9.688;2023-04-08T01:40:26;15.10;;;11.20;;
2406;SDS011;37709;53.480;9.688;2023-04-08T01:42:55;10.43;;;8.60;;
2406;SDS011;37709;53.480;9.688;2023-04-08T01:45:23;11.97;;;10.37;;
2406;SDS011;37709;53.480;9.688;2023-04-08T01:47:51;15.60;;;9.27;;
2406;SDS011;37709;53.480;9.688;2023-04-08T01:50:19;12.97;;;8.90;;
2406;SDS011;37709;53.480;9.688;2023-04-08T01:52:48;13.47;;;9.50;;
2406;SDS011;37709;53.480;9.688;2023-04-08T01:55:19;12.53;;;9.47;;
2406;SDS011;37709;53.480;9.688;2023-04-08T01:57:47;12.33;;;9.60;;
2406;SDS011;37709;53.480;9.688;2023-04-08T02:00:18;11.00;;;8.87;;
2406;SDS011;37709;53.480;9.688;2023-04-08T02:02:50;10.10;;;8.27;;
2406;SDS011;37709;53.480;9.688;2023-04-08T02:05:19;12.20;;;9.50;;
2406;SDS011;37709;53.480;9.688;2023-04-08T02:07:47;13.37;;;9.37;;
2406;SDS011;37709;53.480;9.688;2023-04-08T02:10:15;12.37;;;9.23;;
2406;SDS011;37709;53.480;9.688;2023-04-08T02:12:43;9.93;;;8.30;;
2406;SDS011;37709;53.480;9.688;2023-04-08T02:15:11;10.00;;;7.53;;
2406;SDS011;37709;53.480;9.688;2023-04-08T02:17:43;12.20;;;8.13;;
2406;SDS011;37709;53.480;9.688;2023-04-08T02:20:49;11.30;;;7.83;;
2406;SDS011;37709;53.480;9.688;2023-04-08T02:23:18;10.27;;;7.47;;
2406;SDS011;37709;53.480;9.688;2023-04-08T02:25:49;11.80;;;8.60;;
2406;SDS011;37709;53.480;9.688;2023-04-08T02:28:22;9.83;;;7.63;;
2406;SDS011;37709;53.480;9.688;2023-04-08T02:30:52;9.00;;;6.67;;
2406;SDS011;37709;53.480;9.688;2023-04-08T02:33:21;9.97;;;7.63;;
2406;SDS011;37709;53.480;9.688;2023-04-08T02:35:52;8.77;;;7.87;;
2406;SDS011;37709;53.480;9.688;2023-04-08T02:38:22;10.07;;;7.90;;
2406;SDS011;37709;53.480;9.688;2023-04-08T02:40:50;12.27;;;8.03;;
2406;SDS011;37709;53.480;9.688;2023-04-08T02:43:17;10.50;;;7.80;;
2406;SDS011;37709;53.480;9.688;2023-04-08T02:45:44;9.40;;;7.77;;
2406;SDS011;37709;53.480;9.688;2023-04-08T02:48:14;8.70;;;6.80;;
2406;SDS011;37709;53.480;9.688;2023-04-08T02:50:41;9.40;;;7.20;;
2406;SDS011;37709;53.480;9.688;2023-04-08T02:53:09;11.87;;;8.30;;
2406;SDS011;37709;53.480;9.688;2023-04-08T02:55:37;11.03;;;9.20;;
2406;SDS011;37709;53.480;9.688;2023-04-08T02:58:05;13.80;;;8.50;;
2406;SDS011;37709;53.480;9.688;2023-04-08T03:00:32;13.50;;;8.57;;
2406;SDS011;37709;53.480;9.688;2023-04-08T03:02:59;10.83;;;8.67;;
2406;SDS011;37709;53.480;9.688;2023-04-08T03:05:28;12.10;;;9.07;;
2406;SDS011;37709;53.480;9.688;2023-04-08T03:07:55;11.40;;;8.20;;
2406;SDS011;37709;53.480;9.688;2023-04-08T03:10:22;12.30;;;9.00;;
2406;SDS011;37709;53.480;9.688;2023-04-08T03:12:50;12.13;;;9.37;;
2406;SDS011;37709;53.480;9.688;2023-04-08T03:15:17;10.30;;;8.87;;
2406;SDS011;37709;53.480;9.688;2023-04-08T03:17:44;15.03;;;9.77;;
2406;SDS011;37709;53.480;9.688;2023-04-08T03:20:12;11.87;;;9.10;;
2406;SDS011;37709;53.480;9.688;2023-04-08T03:22:39;12.33;;;9.70;;
2406;SDS011;37709;53.480;9.688;2023-04-08T03:25:06;12.77;;;8.57;;
2406;SDS011;37709;53.480;9.688;2023-04-08T03:27:34;13.83;;;9.40;;
2406;SDS011;37709;53.480;9.688;2023-04-08T03:30:02;11.73;;;9.00;;
2406;SDS011;37709;53.480;9.688;2023-04-08T03:32:30;11.10;;;8.50;;
2406;SDS011;37709;53.480;9.688;2023-04-08T03:34:58;10.77;;;9.67;;
2406;SDS011;37709;53.480;9.688;2023-04-08T03:37:25;13.73;;;8.10;;
2406;SDS011;37709;53.480;9.688;2023-04-08T03:39:53;13.10;;;9.47;;
2406;SDS011;37709;53.480;9.688;2023-04-08T03:42:21;10.47;;;8.33;;
2406;SDS011;37709;53.480;9.688;2023-04-08T03:44:49;10.43;;;9.20;;
2406;SDS011;37709;53.480;9.688;2023-04-08T03:47:16;9.73;;;8.53;;
2406;SDS011;37709;53.480;9.688;2023-04-08T03:49:43;11.10;;;9.00;;
2406;SDS011;37709;53.480;9.688;2023-04-08T03:52:10;10.63;;;8.80;;
2406;SDS011;37709;53.480;9.688;2023-04-08T03:54:38;10.57;;;8.97;;
2406;SDS011;37709;53.480;9.688;2023-04-08T03:57:06;10.70;;;9.50;;
2406;SDS011;37709;53.480;9.688;2023-04-08T03:59:33;9.47;;;8.10;;
2406;SDS011;37709;53.480;9.688;2023-04-08T04:02:02;11.83;;;9.87;;
2406;SDS011;37709;53.480;9.688;2023-04-08T04:04:30;12.73;;;10.47;;
2406;SDS011;37709;53.480;9.688;2023-04-08T04:06:57;9.67;;;8.67;;
2406;SDS011;37709;53.480;9.688;2023-04-08T04:09:24;10.37;;;8.60;;
2406;SDS011;37709;53.480;9.688;2023-04-08T04:11:53;10.87;;;8.80;;
2406;SDS011;37709;53.480;9.688;2023-04-08T04:14:20;11.60;;;9.20;;
2406;SDS011;37709;53.480;9.688;2023-04-08T04:16:47;12.90;;;9.50;;
2406;SDS011;37709;53.480;9.688;2023-04-08T04:19:15;10.17;;;9.10;;
2406;SDS011;37709;53.480;9.688;2023-04-08T04:21:44;12.73;;;9.53;;
2406;SDS011;37709;53.480;9.688;2023-04-08T04:24:12;11.50;;;9.93;;
2406;SDS011;37709;53.480;9.688;2023-04-08T04:26:40;13.57;;;9.87;;
2406;SDS011;37709;53.480;9.688;2023-04-08T04:29:07;11.63;;;10.03;;
2406;SDS011;37709;53.480;9.688;2023-04-08T04:31:34;11.37;;;10.17;;
2406;SDS011;37709;53.480;9.688;2023-04-08T04:34:02;12.63;;;10.30;;
2406;SDS011;37709;53.480;9.688;2023-04-08T04:36:29;14.30;;;10.27;;
2406;SDS011;37709;53.480;9.688;2023-04-08T04:38:57;13.30;;;9.97;;
2406;SDS011;37709;53.480;9.688;2023-04-08T04:41:25;10.90;;;9.57;;
2406;SDS011;37709;53.480;9.688;2023-04-08T04:43:53;13.80;;;11.00;;
2406;SDS011;37709;53.480;9.688;2023-04-08T04:46:20;12.20;;;10.27;;
2406;SDS011;37709;53.480;9.688;2023-04-08T04:48:47;13.00;;;9.77;;
2406;SDS011;37709;53.480;9.688;2023-04-08T04:51:15;13.80;;;11.93;;
2406;SDS011;37709;53.480;9.688;2023-04-08T04:53:42;17.00;;;12.10;;
2406;SDS011;37709;53.480;9.688;2023-04-08T04:56:09;15.33;;;11.50;;
2406;SDS011;37709;53.480;9.688;2023-04-08T04:58:37;15.90;;;11.53;;
2406;SDS011;37709;53.480;9.688;2023-04-08T05:01:04;17.07;;;12.30;;
2406;SDS011;37709;53.480;9.688;2023-04-08T05:03:31;17.07;;;12.37;;
2406;SDS011;37709;53.480;9.688;2023-04-08T05:05:59;15.73;;;12.03;;
2406;SDS011;37709;53.480;9.688;2023-04-08T05:08:27;15.40;;;11.90;;
2406;SDS011;37709;53.480;9.688;2023-04-08T05:10:54;14.90;;;11.73;;
2406;SDS011;37709;53.480;9.688;2023-04-08T05:13:22;14.70;;;11.47;;
2406;SDS011;37709;53.480;9.688;2023-04-08T05:15:49;16.80;;;11.53;;
2406;SDS011;37709;53.480;9.688;2023-04-08T05:18:16;16.60;;;12.07;;
2406;SDS011;37709;53.480;9.688;2023-04-08T05:20:44;19.27;;;12.53;;
2406;SDS011;37709;53.480;9.688;2023-04-08T05:23:11;16.13;;;12.97;;
2406;SDS011;37709;53.480;9.688;2023-04-08T05:25:38;15.03;;;10.67;;
2406;SDS011;37709;53.480;9.688;2023-04-08T05:28:06;14.50;;;12.40;;
2406;SDS011;37709;53.480;9.688;2023-04-08T05:30:35;14.90;;;11.30;;
2406;SDS011;37709;53.480;9.688;2023-04-08T05:33:02;16.53;;;12.20;;
2406;SDS011;37709;53.480;9.688;2023-04-08T05:35:30;17.10;;;13.33;;
2406;SDS011;37709;53.480;9.688;2023-04-08T05:37:57;17.23;;;13.50;;
2406;SDS011;37709;53.480;9.688;2023-04-08T05:40:25;18.10;;;13.33;;
2406;SDS011;37709;53.480;9.688;2023-04-08T05:42:52;20.13;;;13.60;;
2406;SDS011;37709;53.480;9.688;2023-04-08T05:45:19;18.30;;;13.30;;
2406;SDS011;37709;53.480;9.688;2023-04-08T05:47:47;16.33;;;12.00;;
2406;SDS011;37709;53.480;9.688;2023-04-08T05:50:14;24.30;;;14.63;;
2406;SDS011;37709;53.480;9.688;2023-04-08T05:52:42;18.30;;;13.33;;
2406;SDS011;37709;53.480;9.688;2023-04-08T05:55:12;17.87;;;15.10;;
2406;SDS011;37709;53.480;9.688;2023-04-08T05:57:40;18.80;;;12.80;;
2406;SDS011;37709;53.480;9.688;2023-04-08T06:00:08;17.73;;;11.27;;
2406;SDS011;37709;53.480;9.688;2023-04-08T06:02:37;18.20;;;12.37;;
2406;SDS011;37709;53.480;9.688;2023-04-08T06:05:05;19.63;;;13.87;;
2406;SDS011;37709;53.480;9.688;2023-04-08T06:07:32;17.20;;;12.37;;
2406;SDS011;37709;53.480;9.688;2023-04-08T06:10:00;16.47;;;12.63;;
2406;SDS011;37709;53.480;9.688;2023-04-08T06:12:27;19.60;;;13.30;;
2406;SDS011;37709;53.480;9.688;2023-04-08T06:14:55;17.33;;;12.27;;
2406;SDS011;37709;53.480;9.688;2023-04-08T06:17:22;19.47;;;13.53;;
2406;SDS011;37709;53.480;9.688;2023-04-08T06:19:49;17.17;;;13.80;;
2406;SDS011;37709;53.480;9.688;2023-04-08T06:22:17;19.00;;;13.53;;
2406;SDS011;37709;53.480;9.688;2023-04-08T06:24:45;17.97;;;12.90;;
2406;SDS011;37709;53.480;9.688;2023-04-08T06:27:13;19.43;;;13.20;;
2406;SDS011;37709;53.480;9.688;2023-04-08T06:29:41;21.57;;;13.87;;
2406;SDS011;37709;53.480;9.688;2023-04-08T06:32:09;18.00;;;12.13;;
2406;SDS011;37709;53.480;9.688;2023-04-08T06:34:37;18.50;;;13.00;;
2406;SDS011;37709;53.480;9.688;2023-04-08T06:37:04;17.23;;;12.80;;
2406;SDS011;37709;53.480;9.688;2023-04-08T06:39:32;21.03;;;13.60;;
2406;SDS011;37709;53.480;9.688;2023-04-08T06:41:59;19.50;;;13.10;;
2406;SDS011;37709;53.480;9.688;2023-04-08T06:44:37;20.33;;;12.87;;
2406;SDS011;37709;53.480;9.688;2023-04-08T06:47:04;15.30;;;12.20;;
2406;SDS011;37709;53.480;9.688;2023-04-08T06:49:32;16.30;;;11.40;;
2406;SDS011;37709;53.480;9.688;2023-04-08T06:51:59;18.93;;;12.47;;
2406;SDS011;37709;53.480;9.688;2023-04-08T06:54:26;16.50;;;12.40;;
2406;SDS011;37709;53.480;9.688;2023-04-08T06:56:54;17.13;;;11.03;;
2406;SDS011;37709;53.480;9.688;2023-04-08T06:59:21;16.33;;;12.90;;
2406;SDS011;37709;53.480;9.688;2023-04-08T07:01:48;16.37;;;12.43;;
2406;SDS011;37709;53.480;9.688;2023-04-08T07:04:16;17.97;;;12.40;;
2406;SDS011;37709;53.480;9.688;2023-04-08T07:06:43;19.77;;;12.80;;
2406;SDS011;37709;53.480;9.688;2023-04-08T07:09:10;17.97;;;12.50;;
2406;SDS011;37709;53.480;9.688;2023-04-08T07:11:38;15.13;;;12.60;;
2406;SDS011;37709;53.480;9.688;2023-04-08T07:14:06;20.83;;;14.40;;
2406;SDS011;37709;53.480;9.688;2023-04-08T07:16:33;15.23;;;11.83;;
2406;SDS011;37709;53.480;9.688;2023-04-08T07:19:01;14.97;;;12.10;;
2406;SDS011;37709;53.480;9.688;2023-04-08T07:21:28;17.07;;;11.07;;
2406;SDS011;37709;53.480;9.688;2023-04-08T07:23:57;18.77;;;11.97;;
2406;SDS011;37709;53.480;9.688;2023-04-08T07:26:24;18.63;;;12.63;;
2406;SDS011;37709;53.480;9.688;2023-04-08T07:28:53;18.03;;;13.10;;
2406;SDS011;37709;53.480;9.688;2023-04-08T07:31:21;14.67;;;11.53;;
2406;SDS011;37709;53.480;9.688;2023-04-08T07:33:48;18.53;;;12.43;;
2406;SDS011;37709;53.480;9.688;2023-04-08T07:36:16;14.87;;;11.77;;
2406;SDS011;37709;53.480;9.688;2023-04-08T07:38:44;16.20;;;13.40;;
2406;SDS011;37709;53.480;9.688;2023-04-08T07:41:11;17.00;;;12.50;;
2406;SDS011;37709;53.480;9.688;2023-04-08T07:43:39;18.40;;;13.60;;
2406;SDS011;37709;53.480;9.688;2023-04-08T07:46:07;20.17;;;13.00;;
2406;SDS011;37709;53.480;9.688;2023-04-08T07:48:35;18.27;;;12.20;;
2406;SDS011;37709;53.480;9.688;2023-04-08T07:51:03;17.57;;;12.60;;
2406;SDS011;37709;53.480;9.688;2023-04-08T07:53:36;20.50;;;12.93;;
2406;SDS011;37709;53.480;9.688;2023-04-08T07:56:11;17.40;;;12.50;;
2406;SDS011;37709;53.480;9.688;2023-04-08T07:58:40;18.33;;;12.77;;
2406;SDS011;37709;53.480;9.688;2023-04-08T08:01:18;21.50;;;14.40;;
2406;SDS011;37709;53.480;9.688;2023-04-08T08:03:47;17.17;;;11.97;;
2406;SDS011;37709;53.480;9.688;2023-04-08T08:06:15;19.53;;;12.80;;
2406;SDS011;37709;53.480;9.688;2023-04-08T08:08:43;19.20;;;12.67;;
2406;SDS011;37709;53.480;9.688;2023-04-08T08:11:11;15.93;;;11.93;;
2406;SDS011;37709;53.480;9.688;2023-04-08T08:13:39;15.57;;;10.67;;
2406;SDS011;37709;53.480;9.688;2023-04-08T08:16:06;16.60;;;12.20;;
2406;SDS011;37709;53.480;9.688;2023-04-08T08:18:37;14.20;;;11.57;;
2406;SDS011;37709;53.480;9.688;2023-04-08T08:21:06;15.13;;;11.43;;
2406;SDS011;37709;53.480;9.688;2023-04-08T08:23:34;15.57;;;11.97;;
2406;SDS011;37709;53.480;9.688;2023-04-08T08:26:04;15.70;;;11.43;;
2406;SDS011;37709;53.480;9.688;2023-04-08T08:28:32;14.97;;;11.73;;
2406;SDS011;37709;53.480;9.688;2023-04-08T08:31:00;15.10;;;11.00;;
2406;SDS011;37709;53.480;9.688;2023-04-08T08:33:29;14.53;;;10.70;;
2406;SDS011;37709;53.480;9.688;2023-04-08T08:35:56;15.70;;;11.63;;
2406;SDS011;37709;53.480;9.688;2023-04-08T08:38:24;13.50;;;10.17;;
2406;SDS011;37709;53.480;9.688;2023-04-08T08:40:55;16.13;;;11.10;;
2406;SDS011;37709;53.480;9.688;2023-04-08T08:43:23;12.60;;;10.73;;
2406;SDS011;37709;53.480;9.688;2023-04-08T08:45:51;13.97;;;10.60;;
2406;SDS011;37709;53.480;9.688;2023-04-08T08:48:18;13.83;;;10.50;;
2406;SDS011;37709;53.480;9.688;2023-04-08T08:50:46;15.97;;;10.80;;
2406;SDS011;37709;53.480;9.688;2023-04-08T08:53:14;13.30;;;9.80;;
2406;SDS011;37709;53.480;9.688;2023-04-08T08:55:42;10.60;;;8.57;;
2406;SDS011;37709;53.480;9.688;2023-04-08T08:58:29;10.87;;;9.20;;
2406;SDS011;37709;53.480;9.688;2023-04-08T09:00:57;14.03;;;8.90;;
2406;SDS011;37709;53.480;9.688;2023-04-08T09:03:25;12.60;;;9.30;;
2406;SDS011;37709;53.480;9.688;2023-04-08T09:05:55;14.77;;;10.10;;
2406;SDS011;37709;53.480;9.688;2023-04-08T09:08:33;11.50;;;10.00;;
2406;SDS011;37709;53.480;9.688;2023-04-08T09:11:15;11.20;;;8.90;;
2406;SDS011;37709;53.480;9.688;2023-04-08T09:13:44;11.87;;;9.63;;
2406;SDS011;37709;53.480;9.688;2023-04-08T09:16:13;11.30;;;8.87;;
2406;SDS011;37709;53.480;9.688;2023-04-08T09:18:44;12.50;;;8.77;;
2406;SDS011;37709;53.480;9.688;2023-04-08T09:21:13;10.20;;;8.67;;
2406;SDS011;37709;53.480;9.688;2023-04-08T09:28:56;12.07;;;9.43;;
2406;SDS011;37709;53.480;9.688;2023-04-08T09:31:25;13.57;;;10.13;;
2406;SDS011;37709;53.480;9.688;2023-04-08T09:33:54;14.90;;;11.27;;
2406;SDS011;37709;53.480;9.688;2023-04-08T09:36:26;14.97;;;9.97;;
2406;SDS011;37709;53.480;9.688;2023-04-08T09:38:54;14.40;;;9.70;;
2406;SDS011;37709;53.480;9.688;2023-04-08T09:41:23;11.00;;;9.60;;
2406;SDS011;37709;53.480;9.688;2023-04-08T09:43:55;12.40;;;9.23;;
2406;SDS011;37709;53.480;9.688;2023-04-08T09:47:07;11.47;;;10.00;;
2406;SDS011;37709;53.480;9.688;2023-04-08T09:51:53;11.30;;;9.60;;
2406;SDS011;37709;53.480;9.688;2023-04-08T09:54:41;12.80;;;9.87;;
2406;SDS011;37709;53.480;9.688;2023-04-08T10:00:14;12.30;;;9.67;;
2406;SDS011;37709;53.480;9.688;2023-04-08T10:02:44;11.30;;;9.37;;
2406;SDS011;37709;53.480;9.688;2023-04-08T10:05:23;9.97;;;8.50;;
2406;SDS011;37709;53.480;9.688;2023-04-08T10:07:51;10.10;;;9.03;;
2406;SDS011;37709;53.480;9.688;2023-04-08T10:10:19;10.63;;;8.60;;
2406;SDS011;37709;53.480;9.688;2023-04-08T10:12:47;10.00;;;8.50;;
2406;SDS011;37709;53.480;9.688;2023-04-08T10:17:51;10.33;;;8.57;;
2406;SDS011;37709;53.480;9.688;2023-04-08T10:23:03;9.60;;;8.03;;
2406;SDS011;37709;53.480;9.688;2023-04-08T10:25:33;9.27;;;8.27;;
2406;SDS011;37709;53.480;9.688;2023-04-08T10:33:11;10.47;;;9.37;;
2406;SDS011;37709;53.480;9.688;2023-04-08T10:35:42;13.90;;;9.67;;
2406;SDS011;37709;53.480;9.688;2023-04-08T10:38:13;10.43;;;9.33;;
2406;SDS011;37709;53.480;9.688;2023-04-08T10:40:42;11.57;;;9.57;;
2406;SDS011;37709;53.480;9.688;2023-04-08T10:43:10;12.33;;;9.43;;
2406;SDS011;37709;53.480;9.688;2023-04-08T10:45:39;12.60;;;9.00;;
2406;SDS011;37709;53.480;9.688;2023-04-08T10:48:16;10.37;;;9.30;;
2406;SDS011;37709;53.480;9.688;2023-04-08T10:51:02;10.70;;;8.80;;
2406;SDS011;37709;53.480;9.688;2023-04-08T10:53:31;14.53;;;10.83;;
2406;SDS011;37709;53.480;9.688;2023-04-08T10:56:02;13.40;;;9.97;;
2406;SDS011;37709;53.480;9.688;2023-04-08T10:58:52;12.10;;;9.70;;
2406;SDS011;37709;53.480;9.688;2023-04-08T11:01:22;12.47;;;10.40;;
2406;SDS011;37709;53.480;9.688;2023-04-08T11:03:50;12.33;;;9.53;;
2406;SDS011;37709;53.480;9.688;2023-04-08T11:06:19;11.57;;;9.50;;
2406;SDS011;37709;53.480;9.688;2023-04-08T11:08:51;11.70;;;10.37;;
2406;SDS011;37709;53.480;9.688;2023-04-08T11:11:18;10.13;;;8.80;;
2406;SDS011;37709;53.480;9.688;2023-04-08T11:13:46;16.43;;;11.83;;
2406;SDS011;37709;53.480;9.688;2023-04-08T11:16:20;17.27;;;13.67;;
2406;SDS011;37709;53.480;9.688;2023-04-08T11:18:49;13.60;;;11.87;;
2406;SDS011;37709;53.480;9.688;2023-04-08T11:21:17;13.10;;;11.60;;
2406;SDS011;37709;53.480;9.688;2023-04-08T11:23:47;15.27;;;13.00;;
2406;SDS011;37709;53.480;9.688;2023-04-08T11:26:15;12.90;;;11.50;;
2406;SDS011;37709;53.480;9.688;2023-04-08T11:28:44;11.87;;;10.67;;
2406;SDS011;37709;53.480;9.688;2023-04-08T11:31:12;13.37;;;12.07;;
2406;SDS011;37709;53.480;9.688;2023-04-08T11:33:46;13.67;;;11.70;;
2406;SDS011;37709;53.480;9.688;2023-04-08T11:36:16;10.60;;;9.50;;
2406;SDS011;37709;53.480;9.688;2023-04-08T11:38:44;11.17;;;8.93;;
2406;SDS011;37709;53.480;9.688;2023-04-08T11:41:13;11.70;;;9.90;;
2406;SDS011;37709;53.480;9.688;2023-04-08T11:43:52;13.63;;;10.60;;
2406;SDS011;37709;53.480;9.688;2023-04-08T11:46:21;14.90;;;11.97;;
2406;SDS011;37709;53.480;9.688;2023-04-08T11:49:23;13.13;;;10.83;;
2406;SDS011;37709;53.480;9.688;2023-04-08T11:51:56;12.93;;;10.97;;
2406;SDS011;37709;53.480;9.688;2023-04-08T11:54:27;12.87;;;11.53;;
2406;SDS011;37709;53.480;9.688;2023-04-08T11:56:57;12.10;;;10.30;;
2406;SDS011;37709;53.480;9.688;2023-04-08T11:59:25;12.60;;;10.37;;
2406;SDS011;37709;53.480;9.688;2023-04-08T12:01:55;13.27;;;11.20;;
2406;SDS011;37709;53.480;9.688;2023-04-08T12:04:26;11.50;;;10.30;;
2406;SDS011;37709;53.480;9.688;2023-04-08T12:06:54;13.80;;;10.57;;
2406;SDS011;37709;53.480;9.688;2023-04-08T12:09:24;14.67;;;11.90;;
2406;SDS011;37709;53.480;9.688;2023-04-08T12:11:52;15.00;;;11.43;;
2406;SDS011;37709;53.480;9.688;2023-04-08T12:14:20;13.80;;;12.37;;
2406;SDS011;37709;53.480;9.688;2023-04-08T12:16:53;15.70;;;13.03;;
2406;SDS011;37709;53.480;9.688;2023-04-08T12:19:21;16.00;;;14.27;;
2406;SDS011;37709;53.480;9.688;2023-04-08T12:21:48;18.90;;;15.90;;
2406;SDS011;37709;53.480;9.688;2023-04-08T12:24:15;19.00;;;15.07;;
2406;SDS011;37709;53.480;9.688;2023-04-08T12:26:43;14.90;;;13.40;;
2406;SDS011;37709;53.480;9.688;2023-04-08T12:29:10;14.63;;;13.13;;
2406;SDS011;37709;53.480;9.688;2023-04-08T12:31:37;13.90;;;11.20;;
2406;SDS011;37709;53.480;9.688;2023-04-08T12:34:05;15.53;;;13.57;;
2406;SDS011;37709;53.480;9.688;2023-04-08T12:36:33;13.60;;;11.47;;
2406;SDS011;37709;53.480;9.688;2023-04-08T12:39:01;13.63;;;12.23;;
2406;SDS011;37709;53.480;9.688;2023-04-08T12:41:29;14.33;;;12.90;;
2406;SDS011;37709;53.480;9.688;2023-04-08T12:43:56;13.97;;;12.40;;
2406;SDS011;37709;53.480;9.688;2023-04-08T12:46:23;13.27;;;11.53;;
2406;SDS011;37709;53.480;9.688;2023-04-08T12:48:51;14.17;;;11.37;;
2406;SDS011;37709;53.480;9.688;2023-04-08T12:51:29;13.43;;;12.00;;
2406;SDS011;37709;53.480;9.688;2023-04-08T12:53:58;17.03;;;13.33;;
2406;SDS011;37709;53.480;9.688;2023-04-08T12:56:27;15.73;;;14.13;;
2406;SDS011;37709;53.480;9.688;2023-04-08T12:58:55;16.90;;;14.23;;
2406;SDS011;37709;53.480;9.688;2023-04-08T13:01:23;16.17;;;14.57;;
2406;SDS011;37709;53.480;9.688;2023-04-08T13:03:51;19.37;;;15.20;;
2406;SDS011;37709;53.480;9.688;2023-04-08T13:06:19;16.17;;;13.60;;
2406;SDS011;37709;53.480;9.688;2023-04-08T13:08:47;16.33;;;13.47;;
2406;SDS011;37709;53.480;9.688;2023-04-08T13:11:15;16.97;;;14.53;;
2406;SDS011;37709;53.480;9.688;2023-04-08T13:13:42;20.63;;;17.50;;
2406;SDS011;37709;53.480;9.688;2023-04-08T13:16:12;21.80;;;16.50;;
2406;SDS011;37709;53.480;9.688;2023-04-08T13:18:41;19.00;;;16.33;;
2406;SDS011;37709;53.480;9.688;2023-04-08T13:21:08;18.60;;;16.13;;
2406;SDS011;37709;53.480;9.688;2023-04-08T13:23:36;15.10;;;13.50;;
2406;SDS011;37709;53.480;9.688;2023-04-08T13:26:03;17.80;;;14.20;;
2406;SDS011;37709;53.480;9.688;2023-04-08T13:28:30;16.27;;;14.30;;
2406;SDS011;37709;53.480;9.688;2023-04-08T13:30:58;17.87;;;14.37;;
2406;SDS011;37709;53.480;9.688;2023-04-08T13:33:26;18.97;;;16.93;;
2406;SDS011;37709;53.480;9.688;2023-04-08T13:35:54;16.43;;;14.67;;
2406;SDS011;37709;53.480;9.688;2023-04-08T13:38:22;16.47;;;14.20;;
2406;SDS011;37709;53.480;9.688;2023-04-08T13:40:50;16.50;;;14.70;;
2406;SDS011;37709;53.480;9.688;2023-04-08T13:43:17;17.70;;;15.80;;
2406;SDS011;37709;53.480;9.688;2023-04-08T13:45:46;16.43;;;14.70;;
2406;SDS011;37709;53.480;9.688;2023-04-08T13:48:14;19.20;;;14.70;;
2406;SDS011;37709;53.480;9.688;2023-04-08T13:50:42;17.40;;;15.60;;
2406;SDS011;37709;53.480;9.688;2023-04-08T13:53:09;17.00;;;14.80;;
2406;SDS011;37709;53.480;9.688;2023-04-08T13:55:37;18.83;;;16.23;;
2406;SDS011;37709;53.480;9.688;2023-04-08T13:58:04;17.47;;;15.27;;
2406;SDS011;37709;53.480;9.688;2023-04-08T14:00:43;20.07;;;15.70;;
2406;SDS011;37709;53.480;9.688;2023-04-08T14:03:10;17.70;;;15.10;;
2406;SDS011;37709;53.480;9.688;2023-04-08T14:05:38;17.13;;;15.10;;
2406;SDS011;37709;53.480;9.688;2023-04-08T14:08:05;16.33;;;14.23;;
2406;SDS011;37709;53.480;9.688;2023-04-08T14:10:32;17.10;;;14.60;;
2406;SDS011;37709;53.480;9.688;2023-04-08T14:13:00;16.60;;;14.17;;
2406;SDS011;37709;53.480;9.688;2023-04-08T14:15:27;15.80;;;14.27;;
2406;SDS011;37709;53.480;9.688;2023-04-08T14:17:54;15.63;;;13.30;;
2406;SDS011;37709;53.480;9.688;2023-04-08T14:20:22;14.63;;;13.13;;
2406;SDS011;37709;53.480;9.688;2023-04-08T14:22:50;14.20;;;12.70;;
2406;SDS011;37709;53.480;9.688;2023-04-08T14:25:17;15.57;;;13.30;;
2406;SDS011;37709;53.480;9.688;2023-04-08T14:27:44;15.47;;;13.40;;
2406;SDS011;37709;53.480;9.688;2023-04-08T14:30:23;13.50;;;12.20;;
2406;SDS011;37709;53.480;9.688;2023-04-08T14:32:51;15.63;;;14.00;;
2406;SDS011;37709;53.480;9.688;2023-04-08T14:35:19;16.80;;;14.47;;
2406;SDS011;37709;53.480;9.688;2023-04-08T14:37:46;16.30;;;13.40;;
2406;SDS011;37709;53.480;9.688;2023-04-08T14:40:14;15.90;;;14.30;;
2406;SDS011;37709;53.480;9.688;2023-04-08T14:42:41;14.83;;;13.33;;
2406;SDS011;37709;53.480;9.688;2023-04-08T14:45:11;16.23;;;13.47;;
2406;SDS011;37709;53.480;9.688;2023-04-08T14:47:39;18.70;;;13.90;;
2406;SDS011;37709;53.480;9.688;2023-04-08T14:50:06;17.33;;;15.00;;
2406;SDS011;37709;53.480;9.688;2023-04-08T14:52:34;14.57;;;13.17;;
2406;SDS011;37709;53.480;9.688;2023-04-08T14:55:02;16.80;;;13.80;;
2406;SDS011;37709;53.480;9.688;2023-04-08T14:57:30;15.03;;;13.43;;
2406;SDS011;37709;53.480;9.688;2023-04-08T14:59:57;15.40;;;13.67;;
2406;SDS011;37709;53.480;9.688;2023-04-08T15:02:25;15.53;;;13.90;;
2406;SDS011;37709;53.480;9.688;2023-04-08T15:04:53;15.00;;;13.40;;
2406;SDS011;37709;53.480;9.688;2023-04-08T15:07:20;14.60;;;12.90;;
2406;SDS011;37709;53.480;9.688;2023-04-08T15:09:48;15.27;;;13.77;;
2406;SDS011;37709;53.480;9.688;2023-04-08T15:12:16;19.63;;;15.13;;
2406;SDS011;37709;53.480;9.688;2023-04-08T15:14:43;16.03;;;14.33;;